Time;durP1;ratioP1;P1;durP2;ratioP2;P2;SDS_P1;SDS_P2;PMS_P1;PMS_P2;Temp;Humidity;BMP_temperature;BMP_pressure;BME280_temperature;BME280_humidity;BME280_pressure;Samples;Min_cycle;Max_cycle;Signal;HPM_P1;HPM_P2
2022/02/06 00:02:29;;;;;;;6.13;1.70;;;1.90;99.90;;;;;;5059403;28;20053;-73
2022/02/06 00:04:57;;;;;;;3.15;1.23;;;1.90;99.90;;;;;;5075390;28;20106;-73
2022/02/06 00:07:30;;;;;;;3.67;1.35;;;1.80;99.90;;;;;;5074435;28;20083;-73
2022/02/06 00:10:02;;;;;;;4.82;1.48;;;1.80;99.90;;;;;;5093518;28;20384;-73
2022/02/06 00:12:38;;;;;;;3.75;1.40;;;1.80;99.90;;;;;;5059155;28;20064;-73
2022/02/06 00:15:13;;;;;;;3.97;1.88;;;1.80;99.90;;;;;;5093307;28;20503;-73
2022/02/06 00:17:40;;;;;;;3.22;1.52;;;1.80;99.90;;;;;;5091846;28;20410;-73
2022/02/06 00:20:15;;;;;;;7.75;1.50;;;1.70;99.90;;;;;;5093227;28;20039;-73
2022/02/06 00:22:54;;;;;;;11.48;1.58;;;1.80;99.90;;;;;;5074498;28;20040;-73
2022/02/06 00:28:34;;;;;;;2.63;1.40;;;1.80;99.90;;;;;;5093352;28;20471;-73
2022/02/06 00:31:15;;;;;;;5.93;1.60;;;1.80;99.90;;;;;;5090705;28;20044;-73
2022/02/06 00:34:27;;;;;;;4.65;1.60;;;1.80;99.90;;;;;;5085901;28;20040;-73
2022/02/06 00:39:24;;;;;;;2.30;1.17;;;1.90;99.90;;;;;;5093725;28;20411;-73
2022/02/06 00:41:56;;;;;;;7.25;1.90;;;1.90;99.90;;;;;;5059302;28;20059;-73
2022/02/06 00:44:27;;;;;;;5.43;1.23;;;1.90;99.90;;;;;;5092443;28;20093;-73
2022/02/06 00:46:58;;;;;;;4.10;1.10;;;1.90;99.90;;;;;;5075145;28;20062;-72
2022/02/06 00:49:31;;;;;;;7.78;1.55;;;1.90;99.90;;;;;;5064426;28;20045;-72
2022/02/06 00:52:16;;;;;;;2.03;1.73;;;1.90;99.90;;;;;;5089065;28;20074;-73
2022/02/06 00:54:49;;;;;;;4.65;1.65;;;1.90;99.90;;;;;;5079826;28;20039;-72
2022/02/06 00:57:21;;;;;;;1.80;1.02;;;1.90;99.90;;;;;;5083015;28;20111;-72
2022/02/06 00:59:55;;;;;;;2.55;1.30;;;1.90;99.90;;;;;;5074668;28;20525;-73
2022/02/06 01:02:29;;;;;;;5.00;1.38;;;1.80;99.90;;;;;;5075535;28;20576;-72
2022/02/06 01:05:04;;;;;;;4.25;1.50;;;1.80;99.90;;;;;;5074809;28;20093;-73
2022/02/06 01:07:34;;;;;;;2.75;1.10;;;1.80;99.90;;;;;;5092403;28;20051;-72
2022/02/06 01:10:11;;;;;;;6.47;1.40;;;1.80;99.90;;;;;;5059023;28;20048;-73
2022/02/06 01:12:42;;;;;;;3.10;1.45;;;1.80;99.90;;;;;;5072027;28;20071;-73
2022/02/06 01:15:20;;;;;;;7.95;2.25;;;1.80;99.90;;;;;;5092659;28;20559;-72
2022/02/06 01:23:10;;;;;;;5.72;1.60;;;1.70;99.90;;;;;;5091046;28;20040;-72
2022/02/06 01:26:05;;;;;;;3.17;1.40;;;1.70;99.90;;;;;;5075238;28;20092;-72
2022/02/06 01:28:42;;;;;;;7.72;1.80;;;1.80;99.90;;;;;;5092441;28;20044;-72
2022/02/06 01:33:56;;;;;;;4.93;1.80;;;1.70;99.90;;;;;;5090889;28;20560;-72
2022/02/06 01:36:38;;;;;;;2.88;1.50;;;1.70;99.90;;;;;;5091453;28;20040;-73
2022/02/06 01:39:23;;;;;;;4.45;1.92;;;1.70;99.90;;;;;;5074174;28;20050;-72
2022/02/06 01:41:57;;;;;;;3.90;1.50;;;1.70;99.90;;;;;;5090698;28;20163;-73
2022/02/06 02:18:00;;;;;;;3.63;1.67;;;1.70;99.90;;;;;;5073132;28;20055;-72
2022/02/06 02:23:53;;;;;;;6.22;1.27;;;1.70;99.90;;;;;;5089592;28;20054;-72
2022/02/06 02:29:34;;;;;;;8.70;2.05;;;1.70;99.90;;;;;;5091058;28;20066;-73
2022/02/06 02:48:18;;;;;;;5.25;1.77;;;1.80;99.90;;;;;;5090834;28;19941;-72
2022/02/06 02:51:01;;;;;;;5.85;1.35;;;1.80;99.90;;;;;;5089545;28;20078;-72
2022/02/06 02:53:42;;;;;;;3.67;1.48;;;1.80;99.90;;;;;;5090081;28;20063;-72
2022/02/06 02:56:26;;;;;;;3.13;1.25;;;1.80;99.90;;;;;;5091415;28;20040;-72
2022/02/06 03:01:44;;;;;;;3.85;1.33;;;1.90;99.90;;;;;;5072912;28;20108;-73
2022/02/06 03:04:18;;;;;;;4.55;1.45;;;1.90;99.90;;;;;;5090500;28;20494;-72
2022/02/06 03:06:47;;;;;;;6.07;1.92;;;1.90;99.90;;;;;;5089979;28;20082;-72
2022/02/06 03:09:22;;;;;;;7.07;2.20;;;1.90;99.90;;;;;;5057276;28;20059;-72
2022/02/06 03:11:54;;;;;;;7.50;1.60;;;1.90;99.90;;;;;;5091004;28;20047;-72
2022/02/06 03:14:39;;;;;;;4.93;1.48;;;1.90;99.90;;;;;;5073504;28;20068;-72
2022/02/06 03:17:18;;;;;;;5.30;1.13;;;1.90;99.90;;;;;;5090811;28;20120;-73
2022/02/06 03:19:55;;;;;;;6.10;1.40;;;1.90;99.90;;;;;;5073085;28;20064;-72
2022/02/06 03:22:34;;;;;;;4.80;1.63;;;1.90;99.90;;;;;;5090582;28;20417;-73
2022/02/06 03:25:07;;;;;;;4.38;1.25;;;2.00;99.90;;;;;;5090450;28;20098;-72
2022/02/06 03:27:39;;;;;;;2.67;1.13;;;2.00;99.90;;;;;;5073906;28;20044;-72
2022/02/06 03:30:06;;;;;;;6.88;2.13;;;2.10;99.90;;;;;;5056042;28;20078;-72
2022/02/06 03:32:41;;;;;;;2.55;1.45;;;2.10;99.90;;;;;;5073529;28;20439;-72
2022/02/06 03:35:16;;;;;;;5.15;1.50;;;2.10;99.90;;;;;;5059530;28;20132;-72
2022/02/06 03:37:49;;;;;;;6.10;1.50;;;2.10;99.90;;;;;;5077757;28;20044;-72
2022/02/06 03:40:24;;;;;;;3.17;2.03;;;2.10;99.90;;;;;;5077241;28;20042;-73
2022/02/06 03:46:06;;;;;;;7.60;3.20;;;2.10;99.90;;;;;;5088075;28;20062;-72
2022/02/06 03:51:20;;;;;;;5.32;1.95;;;2.20;99.90;;;;;;5076200;28;20048;-72
2022/02/06 03:53:50;;;;;;;6.82;1.90;;;2.10;99.90;;;;;;5076348;28;20466;-72
2022/02/06 03:56:23;;;;;;;5.47;1.50;;;2.20;99.90;;;;;;5075805;28;20036;-72
2022/02/06 03:58:58;;;;;;;4.10;1.90;;;2.20;99.90;;;;;;5073075;28;20040;-72
2022/02/06 04:01:32;;;;;;;6.75;1.65;;;2.20;99.90;;;;;;5073743;28;20063;-72
2022/02/06 04:04:06;;;;;;;6.53;1.57;;;2.20;99.90;;;;;;5090967;28;20102;-72
2022/02/06 04:06:33;;;;;;;4.63;1.40;;;2.20;99.90;;;;;;5079952;28;20294;-72
2022/02/06 04:09:00;;;;;;;5.40;1.40;;;2.20;99.90;;;;;;5094193;28;20040;-72
2022/02/06 04:11:45;;;;;;;7.93;1.48;;;2.20;99.90;;;;;;5092898;28;20048;-72
2022/02/06 04:14:30;;;;;;;5.40;1.98;;;2.30;99.90;;;;;;5059938;28;20580;-72
2022/02/06 04:17:17;;;;;;;4.72;1.75;;;2.20;99.90;;;;;;5082073;28;20513;-73
2022/02/06 04:19:51;;;;;;;5.13;1.63;;;2.20;99.90;;;;;;5059874;28;20054;-72
2022/02/06 04:22:23;;;;;;;;;;;2.20;99.90;;;;;;5076029;28;20059;-72
2022/02/06 04:24:56;;;;;;;3.67;1.60;;;2.30;99.90;;;;;;5075997;28;19920;-72
2022/02/06 04:27:28;;;;;;;4.88;2.78;;;2.30;99.90;;;;;;5093088;28;20044;-72
2022/02/06 04:29:59;;;;;;;3.60;1.88;;;2.30;99.90;;;;;;5093797;28;20052;-72
2022/02/06 04:32:33;;;;;;;5.30;1.83;;;2.30;99.90;;;;;;5075087;28;20044;-72
2022/02/06 04:35:14;;;;;;;5.80;1.67;;;2.30;99.90;;;;;;5092482;28;20127;-72
2022/02/06 04:38:04;;;;;;;7.82;2.20;;;2.30;99.90;;;;;;5086250;28;20086;-72
2022/02/06 04:55:13;;;;;;;;;;;2.40;99.90;;;;;;5092317;28;20040;-72
2022/02/06 05:25:56;;;;;;;4.68;1.27;;;2.60;99.90;;;;;;5074526;28;20052;-72
2022/02/06 05:30:51;;;;;;;5.93;1.80;;;2.60;99.90;;;;;;5092482;28;20036;-73
2022/02/06 05:33:19;;;;;;;3.45;1.30;;;2.60;99.90;;;;;;5074054;28;20438;-72
2022/02/06 05:35:51;;;;;;;4.10;1.10;;;2.70;99.90;;;;;;5092441;28;20135;-72
2022/02/06 05:38:23;;;;;;;4.28;1.63;;;2.70;99.90;;;;;;5073665;28;20046;-72
2022/02/06 05:40:58;;;;;;;2.13;1.20;;;2.70;99.90;;;;;;5058584;28;20499;-73
2022/02/06 05:43:32;;;;;;;;;;;2.70;99.90;;;;;;5092375;28;20048;-72
2022/02/06 05:46:05;;;;;;;3.13;1.30;;;2.70;99.90;;;;;;5074769;28;19920;-73
2022/02/06 05:48:38;;;;;;;4.90;1.00;;;2.70;99.90;;;;;;5092356;28;20040;-72
2022/02/06 05:51:14;;;;;;;5.55;1.10;;;2.70;99.90;;;;;;5092266;28;20044;-72
2022/02/06 05:53:42;;;;;;;6.10;1.58;;;2.70;99.90;;;;;;5073550;28;20492;-72
2022/02/06 05:56:16;;;;;;;3.30;1.20;;;2.80;99.90;;;;;;5057806;28;20043;-73
2022/02/06 05:58:48;;;;;;;2.22;1.08;;;2.80;99.90;;;;;;5073536;28;20304;-72
2022/02/06 06:01:22;;;;;;;2.58;1.10;;;2.70;99.90;;;;;;5089788;28;20052;-72
2022/02/06 06:03:51;;;;;;;2.00;1.00;;;2.70;99.90;;;;;;5091651;28;20040;-72
2022/02/06 06:06:19;;;;;;;3.90;1.50;;;2.70;99.90;;;;;;5074085;28;20076;-73
2022/02/06 06:08:52;;;;;;;3.72;1.10;;;2.70;99.90;;;;;;5074119;28;20390;-72
2022/02/06 06:11:20;;;;;;;2.28;1.30;;;2.70;99.90;;;;;;5091696;28;20123;-72
2022/02/06 06:13:48;;;;;;;4.45;1.10;;;2.70;99.90;;;;;;5091283;28;20513;-72
2022/02/06 06:16:15;;;;;;;4.65;1.40;;;2.80;99.90;;;;;;5091857;28;20174;-72
2022/02/06 06:18:48;;;;;;;3.65;1.17;;;2.70;99.90;;;;;;5090509;28;20036;-72
2022/02/06 06:21:22;;;;;;;4.72;1.20;;;2.70;99.90;;;;;;5090534;28;20043;-73
2022/02/06 06:23:53;;;;;;;4.00;1.40;;;2.70;99.90;;;;;;5091617;28;20071;-72
2022/02/06 06:26:30;;;;;;;4.85;2.17;;;2.70;99.90;;;;;;5057779;28;20047;-72
2022/02/06 06:29:02;;;;;;;2.80;1.40;;;2.70;99.90;;;;;;5091682;28;20127;-72
2022/02/06 06:31:35;;;;;;;2.72;1.20;;;2.70;99.90;;;;;;5090261;28;20052;-72
2022/02/06 06:34:02;;;;;;;2.17;1.20;;;2.70;99.90;;;;;;5073551;28;20094;-73
2022/02/06 06:36:31;;;;;;;4.75;0.95;;;2.70;99.90;;;;;;5073365;28;20044;-72
2022/02/06 06:39:06;;;;;;;4.38;1.25;;;2.70;99.90;;;;;;5072883;28;20136;-72
2022/02/06 06:41:39;;;;;;;4.97;1.17;;;2.70;99.90;;;;;;5072768;28;20054;-72
2022/02/06 06:44:11;;;;;;;2.70;1.10;;;2.70;99.90;;;;;;5091010;28;20126;-72
2022/02/06 06:46:43;;;;;;;4.82;1.35;;;2.70;99.90;;;;;;5074431;28;20065;-72
2022/02/06 06:49:15;;;;;;;8.18;2.08;;;2.80;99.90;;;;;;5075499;28;20044;-72
2022/02/06 06:51:48;;;;;;;4.15;1.10;;;2.80;99.90;;;;;;5083245;28;20043;-72
2022/02/06 06:54:22;;;;;;;2.63;1.02;;;2.70;99.90;;;;;;5072044;28;20091;-72
2022/02/06 07:02:27;;;;;;;5.50;1.33;;;2.80;99.90;;;;;;5093112;28;20055;-72
2022/02/06 07:04:58;;;;;;;4.95;1.50;;;2.90;99.90;;;;;;5078330;28;20071;-72
2022/02/06 07:07:29;;;;;;;2.70;1.30;;;2.80;99.90;;;;;;5089561;28;20074;-72
2022/02/06 07:09:56;;;;;;;4.55;1.55;;;2.80;99.90;;;;;;5093327;28;20047;-72
2022/02/06 07:12:28;;;;;;;3.60;2.22;;;2.80;99.90;;;;;;5098329;28;20122;-72
2022/02/06 07:14:56;;;;;;;3.53;1.00;;;2.80;99.90;;;;;;5076960;28;20047;-73
2022/02/06 07:17:30;;;;;;;3.80;1.23;;;2.90;99.90;;;;;;5095268;28;20079;-72
2022/02/06 07:20:05;;;;;;;5.13;1.20;;;2.80;99.90;;;;;;5095141;28;20131;-72
2022/02/06 07:22:37;;;;;;;2.85;1.35;;;2.90;99.90;;;;;;5076333;28;20044;-72
2022/02/06 07:25:09;;;;;;;4.82;1.27;;;2.90;99.90;;;;;;5094672;28;20036;-72
2022/02/06 07:27:47;;;;;;;7.07;1.65;;;2.90;99.90;;;;;;5094967;28;20055;-72
2022/02/06 07:30:22;;;;;;;4.22;0.95;;;2.90;99.90;;;;;;5060565;28;20044;-72
2022/02/06 07:32:56;;;;;;;2.45;1.17;;;2.90;99.90;;;;;;5093660;28;20583;-72
2022/02/06 07:35:28;;;;;;;3.05;1.17;;;2.90;99.90;;;;;;5094940;28;20063;-73
2022/02/06 07:38:01;;;;;;;2.33;1.00;;;3.00;99.90;;;;;;5076784;28;20090;-72
2022/02/06 07:40:35;;;;;;;3.33;1.08;;;3.00;99.90;;;;;;5076632;28;20127;-72
2022/02/06 07:43:06;;;;;;;2.90;1.10;;;3.10;99.90;;;;;;5094450;28;20384;-73
2022/02/06 07:45:39;;;;;;;5.53;1.42;;;3.10;99.90;;;;;;5076633;28;20044;-73
2022/02/06 07:48:08;;;;;;;5.28;1.20;;;3.20;99.90;;;;;;5073425;28;20059;-73
2022/02/06 07:50:36;;;;;;;4.65;1.60;;;3.30;99.90;;;;;;5075245;28;20043;-72
2022/02/06 07:53:08;;;;;;;5.47;1.25;;;3.30;99.90;;;;;;5086941;28;20586;-72
2022/02/06 07:55:49;;;;;;;4.63;1.25;;;3.30;99.90;;;;;;5067584;28;20040;-72
2022/02/06 07:58:21;;;;;;;3.25;1.08;;;3.40;99.90;;;;;;5091071;28;20063;-72
2022/02/06 08:00:54;;;;;;;2.85;1.17;;;3.30;99.90;;;;;;5092446;28;20521;-72
2022/02/06 08:03:24;;;;;;;4.32;1.45;;;3.40;99.90;;;;;;5076944;28;20101;-72
2022/02/06 08:05:56;;;;;;;3.00;1.20;;;3.30;99.90;;;;;;5075522;28;20586;-73
2022/02/06 08:08:23;;;;;;;4.82;0.93;;;3.30;99.90;;;;;;5075271;28;20047;-72
2022/02/06 08:10:59;;;;;;;4.68;1.10;;;3.40;99.90;;;;;;5075761;28;20044;-72
2022/02/06 08:13:50;;;;;;;4.18;1.20;;;3.40;99.90;;;;;;5086505;28;20040;-72
2022/02/06 08:16:22;;;;;;;3.35;1.10;;;3.30;99.90;;;;;;5079880;28;20044;-72
2022/02/06 08:18:49;;;;;;;2.28;1.10;;;3.30;99.90;;;;;;5071209;28;20071;-73
2022/02/06 08:21:18;;;;;;;3.13;1.30;;;3.40;99.90;;;;;;5094172;28;20036;-72
2022/02/06 08:23:52;;;;;;;3.65;1.25;;;3.40;99.90;;;;;;5089906;28;20520;-73
2022/02/06 08:26:25;;;;;;;3.92;1.30;;;3.40;99.90;;;;;;5074083;28;20043;-72
2022/02/06 08:29:01;;;;;;;4.70;1.10;;;3.50;99.90;;;;;;5076003;28;20097;-73
2022/02/06 08:31:27;;;;;;;4.25;1.20;;;3.50;99.90;;;;;;5096414;28;20064;-73
2022/02/06 08:34:03;;;;;;;2.10;1.00;;;3.50;99.90;;;;;;5082653;28;20125;-73
2022/02/06 08:36:31;;;;;;;7.75;2.25;;;3.50;99.90;;;;;;5069882;28;20067;-72
2022/02/06 08:39:06;;;;;;;3.58;1.45;;;3.50;99.90;;;;;;5078508;28;20044;-73
2022/02/06 08:41:39;;;;;;;8.98;1.98;;;3.50;99.90;;;;;;5077462;28;20056;-73
2022/02/06 08:44:07;;;;;;;3.83;1.83;;;3.60;99.90;;;;;;5070113;28;20047;-73
2022/02/06 08:46:38;;;;;;;3.10;0.82;;;3.60;99.90;;;;;;5091829;28;20086;-72
2022/02/06 08:49:05;;;;;;;3.88;1.35;;;3.60;99.90;;;;;;5074696;28;20414;-73
2022/02/06 08:51:37;;;;;;;3.83;0.85;;;3.60;99.90;;;;;;5097645;28;20072;-73
2022/02/06 08:54:09;;;;;;;5.18;1.00;;;3.70;99.90;;;;;;5064666;28;20049;-72
2022/02/06 08:56:39;;;;;;;2.53;1.13;;;3.70;99.90;;;;;;5072008;28;20550;-73
2022/02/06 08:59:12;;;;;;;2.65;1.30;;;3.80;99.90;;;;;;5094188;28;20469;-72
2022/02/06 09:01:39;;;;;;;3.10;1.17;;;3.80;99.90;;;;;;5075775;28;20040;-73
2022/02/06 09:04:07;;;;;;;3.47;1.20;;;3.80;99.90;;;;;;5075261;28;20565;-73
2022/02/06 09:06:36;;;;;;;3.88;0.90;;;3.90;99.90;;;;;;5096591;28;20039;-73
2022/02/06 09:09:04;;;;;;;1.58;0.80;;;4.10;99.90;;;;;;5063750;28;20059;-72
2022/02/06 09:11:37;;;;;;;5.93;1.30;;;4.10;99.90;;;;;;5091669;28;20514;-72
2022/02/06 09:14:10;;;;;;;2.13;1.10;;;4.20;99.90;;;;;;5081805;28;20039;-73
2022/02/06 09:16:41;;;;;;;3.60;1.30;;;4.20;99.90;;;;;;5082921;28;20491;-73
2022/02/06 09:19:15;;;;;;;4.70;1.35;;;4.20;99.90;;;;;;5089212;28;20036;-73
2022/02/06 09:21:42;;;;;;;2.53;1.02;;;4.30;99.90;;;;;;5090968;28;20418;-73
2022/02/06 09:24:15;;;;;;;4.57;1.00;;;4.30;99.90;;;;;;5071188;28;20055;-73
2022/02/06 09:26:43;;;;;;;2.80;0.95;;;4.40;99.90;;;;;;5070141;28;20051;-73
2022/02/06 09:29:10;;;;;;;3.05;0.85;;;4.50;99.90;;;;;;5087608;28;20048;-73
2022/02/06 09:31:38;;;;;;;2.97;1.00;;;4.50;99.90;;;;;;5072410;28;20568;-73
2022/02/06 09:36:32;;;;;;;3.42;0.93;;;4.60;99.90;;;;;;5091861;28;20120;-73
2022/02/06 09:39:08;;;;;;;3.58;1.10;;;4.60;99.90;;;;;;5069682;28;20589;-73
2022/02/06 09:41:45;;;;;;;4.80;0.98;;;4.60;99.90;;;;;;5090627;28;20040;-73
2022/02/06 09:44:22;;;;;;;1.27;0.60;;;4.60;99.90;;;;;;5071182;28;20076;-73
2022/02/06 09:46:58;;;;;;;1.90;1.00;;;4.70;99.90;;;;;;5075433;28;20050;-73
2022/02/06 09:49:31;;;;;;;2.78;0.80;;;4.80;99.90;;;;;;5077443;28;20047;-73
2022/02/06 09:51:59;;;;;;;2.65;1.02;;;4.90;99.90;;;;;;5095712;28;20086;-73
2022/02/06 09:54:30;;;;;;;2.45;1.00;;;4.90;99.90;;;;;;5075774;28;20127;-73
2022/02/06 09:57:01;;;;;;;1.98;0.63;;;4.90;99.90;;;;;;5073017;28;20139;-73
2022/02/06 09:59:37;;;;;;;2.13;0.90;;;4.90;99.90;;;;;;5074061;28;20116;-73
2022/02/06 10:02:04;;;;;;;4.63;1.00;;;5.00;99.90;;;;;;5088635;28;20157;-73
2022/02/06 10:04:38;;;;;;;3.10;1.00;;;4.90;99.90;;;;;;5086427;28;20032;-73
2022/02/06 10:07:12;;;;;;;3.47;1.10;;;4.80;99.90;;;;;;5053867;28;20047;-73
2022/02/06 10:09:45;;;;;;;3.88;1.05;;;4.90;99.90;;;;;;5091543;28;20044;-73
2022/02/06 10:12:14;;;;;;;2.95;1.00;;;4.80;99.90;;;;;;5073220;28;20138;-73
2022/02/06 10:14:46;;;;;;;4.00;1.10;;;4.80;99.90;;;;;;5064391;28;20090;-73
2022/02/06 10:17:15;;;;;;;4.47;1.10;;;4.80;99.90;;;;;;5087370;28;20044;-73
2022/02/06 10:19:56;;;;;;;4.97;1.20;;;4.70;99.90;;;;;;5071559;28;20490;-73
2022/02/06 10:22:42;;;;;;;1.58;0.80;;;4.70;99.90;;;;;;5058501;28;20491;-73
2022/02/06 10:25:16;;;;;;;2.92;1.00;;;4.70;99.90;;;;;;5074342;28;20044;-73
2022/02/06 10:27:53;;;;;;;1.42;0.73;;;4.70;99.90;;;;;;5071466;28;20036;-73
2022/02/06 10:30:36;;;;;;;2.33;0.93;;;4.70;99.90;;;;;;5055080;28;20044;-73
2022/02/06 10:33:19;;;;;;;3.53;0.90;;;4.70;99.90;;;;;;5072727;28;20114;-73
2022/02/06 10:35:49;;;;;;;2.05;0.95;;;4.70;99.90;;;;;;5089675;28;20046;-73
2022/02/06 10:38:26;;;;;;;3.63;1.20;;;4.80;99.90;;;;;;5072758;28;20042;-73
2022/02/06 10:41:16;;;;;;;3.10;0.82;;;4.80;99.90;;;;;;5056250;28;20155;-73
2022/02/06 10:43:57;;;;;;;3.03;1.10;;;4.80;99.90;;;;;;5072367;28;20036;-73
2022/02/06 10:46:42;;;;;;;3.90;0.88;;;4.90;99.90;;;;;;5090680;28;20051;-73
2022/02/06 10:49:19;;;;;;;4.45;1.45;;;4.90;99.90;;;;;;5089325;28;20047;-73
2022/02/06 10:51:58;;;;;;;3.42;0.80;;;4.90;99.90;;;;;;5073472;28;20110;-73
2022/02/06 10:54:30;;;;;;;3.65;0.73;;;4.90;99.90;;;;;;5073254;28;20036;-73
2022/02/06 10:57:10;;;;;;;5.72;0.80;;;5.00;99.90;;;;;;5073344;28;20040;-73
2022/02/06 10:59:46;;;;;;;6.53;1.20;;;5.00;99.90;;;;;;5055191;28;20430;-73
2022/02/06 11:02:31;;;;;;;3.25;0.90;;;5.10;99.90;;;;;;5073008;28;20052;-73
2022/02/06 11:05:03;;;;;;;6.20;1.40;;;5.10;99.90;;;;;;5072313;28;20135;-73
2022/02/06 11:07:32;;;;;;;1.80;1.00;;;5.10;99.90;;;;;;5072428;28;20051;-73
2022/02/06 11:10:09;;;;;;;3.45;1.10;;;5.20;99.90;;;;;;5090385;28;20090;-73
2022/02/06 11:12:48;;;;;;;6.15;1.42;;;5.20;99.90;;;;;;5090192;28;20044;-73
2022/02/06 11:15:29;;;;;;;3.72;0.73;;;5.20;99.90;;;;;;5072315;28;20398;-73
2022/02/06 11:18:32;;;;;;;3.15;0.95;;;5.20;99.90;;;;;;5072028;28;20140;-73
2022/02/06 11:21:09;;;;;;;3.25;1.00;;;5.10;99.90;;;;;;5071188;28;20475;-73
2022/02/06 11:23:51;;;;;;;7.30;0.80;;;5.20;99.90;;;;;;5071505;28;20036;-73
2022/02/06 11:26:26;;;;;;;3.63;0.82;;;5.10;99.90;;;;;;5071133;28;20059;-73
2022/02/06 11:28:59;;;;;;;4.68;1.02;;;5.10;99.90;;;;;;5074362;28;20043;-74
2022/02/06 11:31:26;;;;;;;3.72;0.98;;;5.10;99.90;;;;;;5073462;28;20379;-73
2022/02/06 11:33:54;;;;;;;2.97;1.15;;;5.10;99.90;;;;;;5071023;28;20119;-73
2022/02/06 11:43:00;;;;;;;3.70;1.00;;;5.10;99.90;;;;;;5055121;28;20058;-73
2022/02/06 11:45:28;;;;;;;3.17;0.90;;;5.10;99.90;;;;;;5072141;28;20159;-73
2022/02/06 11:48:05;;;;;;;6.70;1.73;;;5.10;99.90;;;;;;5070170;28;20147;-73
2022/02/06 11:50:37;;;;;;;3.50;1.00;;;5.00;99.90;;;;;;5086799;28;20111;-73
2022/02/06 11:53:10;;;;;;;5.60;1.48;;;5.00;99.90;;;;;;5018073;28;20514;-73
2022/02/06 11:55:45;;;;;;;3.90;1.00;;;5.00;99.90;;;;;;5055041;28;20040;-72
2022/02/06 11:58:27;;;;;;;2.80;0.90;;;5.00;99.90;;;;;;5079564;28;20038;-73
2022/02/06 12:01:12;;;;;;;4.38;1.48;;;5.00;99.90;;;;;;5098399;28;20047;-73
2022/02/06 12:04:01;;;;;;;3.35;0.93;;;5.00;99.90;;;;;;5084890;28;20044;-73
2022/02/06 12:06:48;;;;;;;1.35;1.00;;;5.00;99.90;;;;;;5074209;28;20046;-72
2022/02/06 12:09:29;;;;;;;1.75;0.82;;;5.00;99.90;;;;;;5074986;28;20528;-72
2022/02/06 12:12:05;;;;;;;3.47;1.00;;;5.00;99.90;;;;;;5090951;28;20044;-72
2022/02/06 12:14:40;;;;;;;4.38;1.13;;;5.00;99.90;;;;;;5079285;28;20127;-72
2022/02/06 12:17:16;;;;;;;3.05;1.25;;;5.00;99.90;;;;;;5074526;28;20071;-72
2022/02/06 12:20:06;;;;;;;2.53;0.90;;;5.00;99.90;;;;;;5093185;28;20044;-72
2022/02/06 12:22:44;;;;;;;2.10;1.00;;;5.10;99.90;;;;;;5056630;28;20048;-73
2022/02/06 12:25:26;;;;;;;2.75;1.45;;;5.00;99.90;;;;;;5076540;28;20050;-73
2022/02/06 12:28:21;;;;;;;4.50;1.02;;;5.10;99.90;;;;;;5079745;28;20044;-73
2022/02/06 12:31:15;;;;;;;2.88;1.13;;;5.10;99.90;;;;;;5093185;28;20043;-72
2022/02/06 12:33:54;;;;;;;1.85;1.05;;;5.10;99.90;;;;;;5075220;28;20566;-76
2022/02/06 12:37:07;;;;;;;2.10;1.30;;;5.10;99.90;;;;;;5075205;28;20446;-72
2022/02/06 12:39:39;;;;;;;2.50;1.25;;;5.20;99.90;;;;;;5085680;28;20516;-72
2022/02/06 12:42:17;;;;;;;3.50;1.00;;;5.20;99.90;;;;;;5059563;28;20090;-72
2022/02/06 12:44:49;;;;;;;6.95;1.58;;;5.20;99.90;;;;;;5076508;28;20048;-72
2022/02/06 12:47:22;;;;;;;4.45;1.25;;;5.20;99.90;;;;;;5093103;28;20118;-72
2022/02/06 12:49:57;;;;;;;3.30;1.33;;;5.20;99.90;;;;;;5059374;28;20066;-72
2022/02/06 12:52:35;;;;;;;3.33;0.95;;;5.20;99.90;;;;;;5075379;28;20036;-72
2022/02/06 12:55:04;;;;;;;2.42;1.00;;;5.20;99.90;;;;;;5077897;28;20112;-72
2022/02/06 12:57:48;;;;;;;4.40;1.20;;;5.20;99.90;;;;;;5096205;28;20032;-72
2022/02/06 13:00:49;;;;;;;2.22;1.13;;;5.20;99.90;;;;;;5053641;28;20036;-72
2022/02/06 13:03:26;;;;;;;2.08;1.17;;;5.20;99.90;;;;;;5071736;28;20068;-72
2022/02/06 13:06:06;;;;;;;2.35;1.00;;;5.20;99.90;;;;;;5071184;28;20055;-72
2022/02/06 13:08:41;;;;;;;3.33;1.23;;;5.20;99.90;;;;;;5083850;28;20410;-73
2022/02/06 13:11:21;;;;;;;3.75;1.00;;;5.20;99.90;;;;;;5093252;28;20044;-72
2022/02/06 13:14:05;;;;;;;2.05;1.52;;;5.20;99.90;;;;;;5092923;28;20594;-72
2022/02/06 13:16:47;;;;;;;2.38;1.10;;;5.30;99.90;;;;;;5075237;28;20046;-72
2022/02/06 13:20:09;;;;;;;2.28;0.90;;;5.30;99.90;;;;;;5089499;28;20044;-72
2022/02/06 13:36:35;;;;;;;2.78;0.80;;;5.30;99.90;;;;;;5073200;28;20036;-73
2022/02/06 13:39:18;;;;;;;2.20;0.80;;;5.40;99.90;;;;;;5091075;28;20040;-72
2022/02/06 13:41:51;;;;;;;3.05;0.80;;;5.40;99.90;;;;;;5074181;28;20040;-73
2022/02/06 13:44:25;;;;;;;4.43;0.90;;;5.40;99.90;;;;;;5095210;28;20056;-72
2022/02/06 13:47:00;;;;;;;2.53;1.40;;;5.40;99.90;;;;;;5067660;28;20519;-73
2022/02/06 13:49:39;;;;;;;3.42;0.85;;;5.40;99.90;;;;;;5085265;28;20038;-73
2022/02/06 13:52:16;;;;;;;1.13;0.85;;;5.50;99.90;;;;;;5073624;28;20085;-72
2022/02/06 13:54:53;;;;;;;3.97;0.82;;;5.40;99.90;;;;;;5088680;28;20040;-73
2022/02/06 13:57:32;;;;;;;5.10;0.90;;;5.40;99.90;;;;;;5072823;28;20055;-73
2022/02/06 14:00:15;;;;;;;1.50;0.80;;;5.40;99.90;;;;;;5057046;28;20517;-73
2022/02/06 14:02:55;;;;;;;4.07;1.27;;;5.40;99.90;;;;;;5091464;28;20055;-73
2022/02/06 14:05:29;;;;;;;3.75;0.88;;;5.40;99.90;;;;;;5073972;28;20118;-73
2022/02/06 14:08:13;;;;;;;1.98;0.75;;;5.40;99.90;;;;;;5091878;28;20055;-73
2022/02/06 14:10:49;;;;;;;1.65;0.80;;;5.50;99.90;;;;;;5090524;28;20071;-73
2022/02/06 14:13:28;;;;;;;2.88;0.88;;;5.50;99.90;;;;;;5057227;28;20401;-73
2022/02/06 14:16:04;;;;;;;2.95;0.85;;;5.50;99.90;;;;;;5072871;28;20047;-73
2022/02/06 14:18:51;;;;;;;5.28;0.98;;;5.50;99.90;;;;;;5056843;28;20066;-73
2022/02/06 14:21:23;;;;;;;2.05;0.70;;;5.50;99.90;;;;;;5091044;28;20062;-73
2022/02/06 14:24:04;;;;;;;1.85;0.80;;;5.50;99.90;;;;;;5089234;28;20048;-73
2022/02/06 14:26:35;;;;;;;3.33;0.80;;;5.60;99.90;;;;;;5053526;28;20054;-73
2022/02/06 14:29:16;;;;;;;3.13;1.05;;;5.60;99.90;;;;;;5054804;28;20558;-73
2022/02/06 14:31:49;;;;;;;2.55;0.90;;;5.60;99.90;;;;;;5091274;28;20424;-73
2022/02/06 14:34:22;;;;;;;5.18;0.98;;;5.60;99.90;;;;;;5089445;28;20044;-73
2022/02/06 14:37:15;;;;;;;1.20;0.80;;;5.60;99.90;;;;;;5073450;28;20055;-73
2022/02/06 14:39:59;;;;;;;2.97;0.88;;;5.60;99.90;;;;;;5057537;28;20051;-73
2022/02/06 14:42:34;;;;;;;1.95;0.80;;;5.60;99.90;;;;;;5055123;28;20055;-73
2022/02/06 14:45:11;;;;;;;3.38;0.80;;;5.60;99.90;;;;;;5073324;28;20056;-73
2022/02/06 14:47:46;;;;;;;2.92;0.80;;;5.60;99.90;;;;;;5073461;28;20127;-73
2022/02/06 14:50:19;;;;;;;1.45;0.63;;;5.60;99.90;;;;;;5072149;28;20048;-73
2022/02/06 14:52:54;;;;;;;2.70;0.70;;;5.60;99.90;;;;;;5072771;28;20402;-73
2022/02/06 14:55:23;;;;;;;1.02;0.52;;;5.60;99.90;;;;;;5090877;28;20090;-73
2022/02/06 14:57:55;;;;;;;1.30;0.60;;;5.70;99.90;;;;;;5073812;28;20525;-73
2022/02/06 15:00:27;;;;;;;1.00;0.50;;;5.70;99.90;;;;;;5090941;28;20036;-73
2022/02/06 15:02:59;;;;;;;1.38;0.70;;;5.70;99.90;;;;;;5070353;28;20123;-73
2022/02/06 15:05:34;;;;;;;1.73;0.93;;;5.70;99.90;;;;;;5057089;28;20422;-72
2022/02/06 15:08:02;;;;;;;3.85;0.60;;;5.70;99.90;;;;;;5090294;28;20040;-73
2022/02/06 15:10:31;;;;;;;3.97;0.90;;;5.70;99.90;;;;;;5073075;28;20473;-73
2022/02/06 15:13:06;;;;;;;2.05;0.55;;;5.80;99.90;;;;;;5073248;28;20529;-73
2022/02/06 15:15:56;;;;;;;1.10;0.60;;;5.80;99.90;;;;;;5073634;28;20086;-72
2022/02/06 15:18:38;;;;;;;2.65;1.17;;;5.80;99.90;;;;;;5073017;28;20070;-73
2022/02/06 15:21:10;;;;;;;3.58;0.73;;;5.80;99.90;;;;;;5072614;28;20040;-73
2022/02/06 15:23:42;;;;;;;1.50;0.60;;;5.80;99.90;;;;;;5074173;28;20054;-73
2022/02/06 15:26:14;;;;;;;1.92;1.00;;;5.90;99.90;;;;;;5089910;28;20043;-73
2022/02/06 15:28:43;;;;;;;2.28;0.77;;;5.80;99.90;;;;;;5087926;28;20402;-73
2022/02/06 15:31:10;;;;;;;2.75;0.70;;;5.80;99.90;;;;;;5074848;28;20048;-73
2022/02/06 15:33:45;;;;;;;3.55;0.70;;;5.80;99.90;;;;;;5094092;28;20036;-72
2022/02/06 15:36:17;;;;;;;1.05;0.70;;;5.80;99.90;;;;;;5094953;28;20122;-73
2022/02/06 15:38:49;;;;;;;1.95;0.70;;;5.80;99.90;;;;;;5077485;28;20035;-73
2022/02/06 15:41:23;;;;;;;1.30;0.70;;;5.70;99.90;;;;;;5076592;28;20040;-72
2022/02/06 15:43:58;;;;;;;2.25;0.70;;;5.70;99.90;;;;;;5075878;28;20113;-73
2022/02/06 15:46:31;;;;;;;1.70;0.75;;;5.70;99.90;;;;;;5094729;28;20119;-73
2022/02/06 15:49:06;;;;;;;1.02;0.50;;;5.60;99.90;;;;;;5077697;28;20048;-73
2022/02/06 15:51:33;;;;;;;2.45;0.70;;;5.50;99.90;;;;;;5076750;28;20044;-73
2022/02/06 15:54:07;;;;;;;3.40;1.33;;;5.60;99.90;;;;;;5093300;28;20070;-73
2022/02/06 15:56:39;;;;;;;1.45;0.70;;;5.50;99.90;;;;;;5076146;28;20046;-73
2022/02/06 15:59:05;;;;;;;2.40;0.93;;;5.50;99.90;;;;;;5094824;28;20135;-73
2022/02/06 16:01:38;;;;;;;3.88;1.30;;;5.40;99.90;;;;;;5079458;28;20101;-73
2022/02/06 16:04:10;;;;;;;1.63;0.67;;;5.40;99.90;;;;;;5094968;28;20123;-73
2022/02/06 16:06:46;;;;;;;0.65;0.50;;;5.30;99.90;;;;;;5093119;28;20048;-73
2022/02/06 16:09:13;;;;;;;3.05;1.10;;;5.20;99.90;;;;;;5075782;28;20058;-73
2022/02/06 16:11:45;;;;;;;2.53;0.63;;;5.20;99.90;;;;;;5075537;28;20044;-73